sensor_id;sensor_type;location;lat;lon;timestamp;pressure;altitude;pressure_sealevel;temperature;humidity
35519;BME280;21627;48.216;16.482;2023-04-03T00:01:22;100193.63;;;4.98;91.50
35519;BME280;21627;48.216;16.482;2023-04-03T00:03:49;100186.72;;;4.95;90.84
35519;BME280;21627;48.216;16.482;2023-04-03T00:06:17;100201.19;;;4.93;91.74
35519;BME280;21627;48.216;16.482;2023-04-03T00:08:47;100193.69;;;4.99;91.69
35519;BME280;21627;48.216;16.482;2023-04-03T00:11:14;100200.53;;;4.99;92.28
35519;BME280;21627;48.216;16.482;2023-04-03T00:13:42;100196.06;;;4.93;91.94
35519;BME280;21627;48.216;16.482;2023-04-03T00:16:11;100204.66;;;4.95;92.22
35519;BME280;21627;48.216;16.482;2023-04-03T00:18:39;100192.41;;;4.85;93.88
35519;BME280;21627;48.216;16.482;2023-04-03T00:21:08;100201.88;;;4.88;92.68
35519;BME280;21627;48.216;16.482;2023-04-03T00:23:35;100212.41;;;4.97;91.63
35519;BME280;21627;48.216;16.482;2023-04-03T00:26:02;100202.97;;;4.96;93.14
35519;BME280;21627;48.216;16.482;2023-04-03T00:28:30;100203.75;;;4.93;92.81
35519;BME280;21627;48.216;16.482;2023-04-03T00:30:57;100202.88;;;4.93;92.54
35519;BME280;21627;48.216;16.482;2023-04-03T00:33:24;100208.16;;;4.97;93.05
35519;BME280;21627;48.216;16.482;2023-04-03T00:35:52;100205.34;;;4.90;92.43
35519;BME280;21627;48.216;16.482;2023-04-03T00:38:19;100202.94;;;4.94;91.46
35519;BME280;21627;48.216;16.482;2023-04-03T00:40:48;100201.25;;;4.95;91.33
35519;BME280;21627;48.216;16.482;2023-04-03T00:43:21;100205.44;;;4.93;91.85
35519;BME280;21627;48.216;16.482;2023-04-03T00:45:51;100208.94;;;4.95;92.58
35519;BME280;21627;48.216;16.482;2023-04-03T00:48:50;100208.63;;;4.84;92.98
35519;BME280;21627;48.216;16.482;2023-04-03T00:51:22;100207.84;;;4.87;93.58
35519;BME280;21627;48.216;16.482;2023-04-03T00:53:53;100211.19;;;4.86;94.54
35519;BME280;21627;48.216;16.482;2023-04-03T00:56:25;100213.84;;;4.89;93.54
35519;BME280;21627;48.216;16.482;2023-04-03T00:59:23;100209.69;;;4.92;93.05
35519;BME280;21627;48.216;16.482;2023-04-03T01:01:55;100202.84;;;4.91;92.77
35519;BME280;21627;48.216;16.482;2023-04-03T01:04:43;100211.34;;;4.90;92.90
35519;BME280;21627;48.216;16.482;2023-04-03T01:07:23;100207.19;;;4.94;93.04
35519;BME280;21627;48.216;16.482;2023-04-03T01:09:57;100201.00;;;4.87;93.37
35519;BME280;21627;48.216;16.482;2023-04-03T01:12:35;100207.78;;;4.85;93.11
35519;BME280;21627;48.216;16.482;2023-04-03T01:15:23;100206.06;;;4.84;93.85
35519;BME280;21627;48.216;16.482;2023-04-03T01:17:56;100209.66;;;4.91;93.32
35519;BME280;21627;48.216;16.482;2023-04-03T01:25:44;100221.66;;;4.92;93.23
35519;BME280;21627;48.216;16.482;2023-04-03T01:28:23;100225.78;;;4.88;94.19
35519;BME280;21627;48.216;16.482;2023-04-03T01:31:18;100223.09;;;4.84;94.71
35519;BME280;21627;48.216;16.482;2023-04-03T01:33:47;100218.88;;;4.86;94.80
35519;BME280;21627;48.216;16.482;2023-04-03T01:36:19;100217.16;;;4.85;95.17
35519;BME280;21627;48.216;16.482;2023-04-03T01:38:48;100204.22;;;4.80;95.55
35519;BME280;21627;48.216;16.482;2023-04-03T01:41:16;100195.69;;;4.81;93.62
35519;BME280;21627;48.216;16.482;2023-04-03T01:43:44;100216.38;;;4.87;95.46
35519;BME280;21627;48.216;16.482;2023-04-03T01:46:11;100214.59;;;4.85;95.37
35519;BME280;21627;48.216;16.482;2023-04-03T01:48:38;100214.53;;;4.83;96.13
35519;BME280;21627;48.216;16.482;2023-04-03T01:51:06;100218.09;;;4.87;95.61
35519;BME280;21627;48.216;16.482;2023-04-03T01:53:33;100214.44;;;4.80;96.33
35519;BME280;21627;48.216;16.482;2023-04-03T01:56:00;100211.72;;;4.74;96.24
35519;BME280;21627;48.216;16.482;2023-04-03T01:58:27;100212.13;;;4.88;95.73
35519;BME280;21627;48.216;16.482;2023-04-03T02:00:54;100217.34;;;4.91;94.95
35519;BME280;21627;48.216;16.482;2023-04-03T02:03:22;100217.16;;;4.85;95.88
35519;BME280;21627;48.216;16.482;2023-04-03T02:05:50;100213.59;;;4.80;95.39
35519;BME280;21627;48.216;16.482;2023-04-03T02:08:17;100212.13;;;4.88;93.94
35519;BME280;21627;48.216;16.482;2023-04-03T02:10:48;100227.44;;;4.86;94.11
35519;BME280;21627;48.216;16.482;2023-04-03T02:13:17;100212.66;;;4.77;95.42
35519;BME280;21627;48.216;16.482;2023-04-03T02:15:44;100229.75;;;4.77;94.78
35519;BME280;21627;48.216;16.482;2023-04-03T02:18:12;100222.09;;;4.78;95.56
35519;BME280;21627;48.216;16.482;2023-04-03T02:20:42;100224.75;;;4.82;95.05
35519;BME280;21627;48.216;16.482;2023-04-03T02:23:10;100229.13;;;4.86;93.80
35519;BME280;21627;48.216;16.482;2023-04-03T02:25:37;100227.31;;;4.82;94.63
35519;BME280;21627;48.216;16.482;2023-04-03T02:28:05;100235.88;;;4.82;94.00
35519;BME280;21627;48.216;16.482;2023-04-03T02:30:32;100226.41;;;4.80;93.36
35519;BME280;21627;48.216;16.482;2023-04-03T02:33:00;100236.56;;;4.76;93.20
35519;BME280;21627;48.216;16.482;2023-04-03T02:35:27;100239.28;;;4.83;93.47
35519;BME280;21627;48.216;16.482;2023-04-03T02:37:54;100232.25;;;4.75;93.54
35519;BME280;21627;48.216;16.482;2023-04-03T02:40:22;100249.72;;;4.89;93.48
35519;BME280;21627;48.216;16.482;2023-04-03T02:42:52;100240.13;;;4.82;93.16
35519;BME280;21627;48.216;16.482;2023-04-03T02:45:19;100231.78;;;4.89;92.31
35519;BME280;21627;48.216;16.482;2023-04-03T02:47:46;100245.09;;;4.77;91.81
35519;BME280;21627;48.216;16.482;2023-04-03T02:50:13;100242.56;;;4.78;91.12
35519;BME280;21627;48.216;16.482;2023-04-03T02:52:41;100248.63;;;4.81;91.00
35519;BME280;21627;48.216;16.482;2023-04-03T02:55:08;100251.28;;;4.84;91.45
35519;BME280;21627;48.216;16.482;2023-04-03T02:57:35;100249.41;;;4.78;91.28
35519;BME280;21627;48.216;16.482;2023-04-03T03:00:03;100241.53;;;4.72;91.00
35519;BME280;21627;48.216;16.482;2023-04-03T03:02:31;100259.63;;;4.76;90.63
35519;BME280;21627;48.216;16.482;2023-04-03T03:04:58;100253.47;;;4.71;91.25
35519;BME280;21627;48.216;16.482;2023-04-03T03:07:25;100257.00;;;4.75;90.45
35519;BME280;21627;48.216;16.482;2023-04-03T03:09:53;100261.25;;;4.74;90.55
35519;BME280;21627;48.216;16.482;2023-04-03T03:12:20;100264.69;;;4.75;92.28
35519;BME280;21627;48.216;16.482;2023-04-03T03:14:48;100252.34;;;4.63;92.18
35519;BME280;21627;48.216;16.482;2023-04-03T03:17:16;100252.94;;;4.54;92.98
35519;BME280;21627;48.216;16.482;2023-04-03T03:19:44;100272.56;;;4.54;94.17
35519;BME280;21627;48.216;16.482;2023-04-03T03:22:12;100261.47;;;4.55;94.99
35519;BME280;21627;48.216;16.482;2023-04-03T03:24:39;100270.09;;;4.57;95.58
35519;BME280;21627;48.216;16.482;2023-04-03T03:27:07;100262.31;;;4.54;94.26
35519;BME280;21627;48.216;16.482;2023-04-03T03:29:34;100266.44;;;4.50;94.74
35519;BME280;21627;48.216;16.482;2023-04-03T03:32:01;100270.50;;;4.44;95.06
35519;BME280;21627;48.216;16.482;2023-04-03T03:34:28;100272.19;;;4.43;93.83
35519;BME280;21627;48.216;16.482;2023-04-03T03:36:55;100281.00;;;4.51;94.02
35519;BME280;21627;48.216;16.482;2023-04-03T03:39:22;100275.13;;;4.54;93.13
35519;BME280;21627;48.216;16.482;2023-04-03T03:41:50;100280.06;;;4.49;92.56
35519;BME280;21627;48.216;16.482;2023-04-03T03:44:17;100276.66;;;4.49;92.33
35519;BME280;21627;48.216;16.482;2023-04-03T03:46:44;100281.81;;;4.50;91.85
35519;BME280;21627;48.216;16.482;2023-04-03T03:49:12;100273.19;;;4.48;91.93
35519;BME280;21627;48.216;16.482;2023-04-03T03:51:39;100278.78;;;4.62;91.01
35519;BME280;21627;48.216;16.482;2023-04-03T03:54:07;100285.50;;;4.59;90.33
35519;BME280;21627;48.216;16.482;2023-04-03T03:56:34;100267.13;;;4.45;91.44
35519;BME280;21627;48.216;16.482;2023-04-03T03:59:01;100273.97;;;4.46;91.95
35519;BME280;21627;48.216;16.482;2023-04-03T04:01:28;100282.56;;;4.48;92.29
35519;BME280;21627;48.216;16.482;2023-04-03T04:03:56;100279.31;;;4.52;91.31
35519;BME280;21627;48.216;16.482;2023-04-03T04:06:24;100280.16;;;4.52;91.72
35519;BME280;21627;48.216;16.482;2023-04-03T04:08:51;100274.91;;;4.48;90.78
35519;BME280;21627;48.216;16.482;2023-04-03T04:11:18;100276.59;;;4.47;91.92
35519;BME280;21627;48.216;16.482;2023-04-03T04:13:45;100277.44;;;4.46;91.28
35519;BME280;21627;48.216;16.482;2023-04-03T04:16:13;100273.94;;;4.44;90.87
35519;BME280;21627;48.216;16.482;2023-04-03T04:18:40;100273.25;;;4.50;90.95
35519;BME280;21627;48.216;16.482;2023-04-03T04:21:07;100270.38;;;4.41;91.93
35519;BME280;21627;48.216;16.482;2023-04-03T04:23:34;100278.03;;;4.39;91.08
35519;BME280;21627;48.216;16.482;2023-04-03T04:26:01;100277.38;;;4.45;91.98
35519;BME280;21627;48.216;16.482;2023-04-03T04:28:28;100286.47;;;4.37;93.11
35519;BME280;21627;48.216;16.482;2023-04-03T04:30:56;100277.94;;;4.36;92.90
35519;BME280;21627;48.216;16.482;2023-04-03T04:33:23;100289.31;;;4.44;92.87
35519;BME280;21627;48.216;16.482;2023-04-03T04:35:50;100288.53;;;4.47;93.01
35519;BME280;21627;48.216;16.482;2023-04-03T04:38:21;100286.75;;;4.44;94.07
35519;BME280;21627;48.216;16.482;2023-04-03T04:40:48;100286.47;;;4.37;94.91
35519;BME280;21627;48.216;16.482;2023-04-03T04:43:16;100299.47;;;4.43;94.03
35519;BME280;21627;48.216;16.482;2023-04-03T04:45:44;100293.34;;;4.38;94.89
35519;BME280;21627;48.216;16.482;2023-04-03T04:48:11;100292.28;;;4.31;95.48
35519;BME280;21627;48.216;16.482;2023-04-03T04:50:38;100301.00;;;4.38;95.13
35519;BME280;21627;48.216;16.482;2023-04-03T04:53:05;100302.78;;;4.39;95.42
35519;BME280;21627;48.216;16.482;2023-04-03T04:55:33;100290.59;;;4.31;95.74
35519;BME280;21627;48.216;16.482;2023-04-03T04:58:00;100291.59;;;4.37;96.14
35519;BME280;21627;48.216;16.482;2023-04-03T05:00:27;100285.22;;;4.25;96.65
35519;BME280;21627;48.216;16.482;2023-04-03T05:02:54;100296.75;;;4.38;97.33
35519;BME280;21627;48.216;16.482;2023-04-03T05:05:22;100295.69;;;4.31;97.57
35519;BME280;21627;48.216;16.482;2023-04-03T05:07:50;100301.16;;;4.42;96.79
35519;BME280;21627;48.216;16.482;2023-04-03T05:10:17;100299.94;;;4.57;97.24
35519;BME280;21627;48.216;16.482;2023-04-03T05:12:44;100298.81;;;4.48;96.03
35519;BME280;21627;48.216;16.482;2023-04-03T05:15:11;100315.84;;;4.46;96.09
35519;BME280;21627;48.216;16.482;2023-04-03T05:17:39;100304.56;;;4.41;97.43
35519;BME280;21627;48.216;16.482;2023-04-03T05:20:07;100313.09;;;4.42;97.15
35519;BME280;21627;48.216;16.482;2023-04-03T05:22:34;100314.13;;;4.47;95.48
35519;BME280;21627;48.216;16.482;2023-04-03T05:25:01;100319.88;;;4.40;95.85
35519;BME280;21627;48.216;16.482;2023-04-03T05:27:29;100307.75;;;4.36;94.80
35519;BME280;21627;48.216;16.482;2023-04-03T05:29:56;100310.38;;;4.37;95.44
35519;BME280;21627;48.216;16.482;2023-04-03T05:32:24;100329.34;;;4.42;95.40
35519;BME280;21627;48.216;16.482;2023-04-03T05:34:53;100316.72;;;4.48;95.25
35519;BME280;21627;48.216;16.482;2023-04-03T05:37:21;100325.31;;;4.49;93.55
35519;BME280;21627;48.216;16.482;2023-04-03T05:39:48;100316.88;;;4.53;92.76
35519;BME280;21627;48.216;16.482;2023-04-03T05:42:18;100298.78;;;4.47;90.97
35519;BME280;21627;48.216;16.482;2023-04-03T05:44:46;100323.03;;;4.58;92.41
35519;BME280;21627;48.216;16.482;2023-04-03T05:47:14;100322.88;;;4.53;91.25
35519;BME280;21627;48.216;16.482;2023-04-03T05:49:41;100330.88;;;4.63;90.12
35519;BME280;21627;48.216;16.482;2023-04-03T05:52:28;100330.19;;;4.68;89.31
35519;BME280;21627;48.216;16.482;2023-04-03T05:54:56;100341.69;;;4.80;88.74
35519;BME280;21627;48.216;16.482;2023-04-03T05:57:23;100337.47;;;4.82;88.46
35519;BME280;21627;48.216;16.482;2023-04-03T05:59:50;100326.25;;;4.78;90.26
35519;BME280;21627;48.216;16.482;2023-04-03T06:02:20;100337.44;;;4.80;88.38
35519;BME280;21627;48.216;16.482;2023-04-03T06:04:48;100330.59;;;4.81;88.85
35519;BME280;21627;48.216;16.482;2023-04-03T06:07:24;100338.38;;;4.84;87.79
35519;BME280;21627;48.216;16.482;2023-04-03T06:09:57;100337.59;;;4.86;86.24
35519;BME280;21627;48.216;16.482;2023-04-03T06:12:24;100335.00;;;4.85;86.81
35519;BME280;21627;48.216;16.482;2023-04-03T06:14:51;100340.03;;;4.82;86.77
35519;BME280;21627;48.216;16.482;2023-04-03T06:17:19;100339.22;;;4.83;86.24
35519;BME280;21627;48.216;16.482;2023-04-03T06:19:46;100349.78;;;4.92;86.57
35519;BME280;21627;48.216;16.482;2023-04-03T06:22:14;100341.97;;;4.89;85.05
35519;BME280;21627;48.216;16.482;2023-04-03T06:24:42;100353.81;;;4.85;86.50
35519;BME280;21627;48.216;16.482;2023-04-03T06:27:10;100352.34;;;4.92;85.18
35519;BME280;21627;48.216;16.482;2023-04-03T06:29:38;100360.25;;;4.99;84.77
35519;BME280;21627;48.216;16.482;2023-04-03T06:32:05;100370.13;;;4.87;85.30
35519;BME280;21627;48.216;16.482;2023-04-03T06:34:33;100362.69;;;4.95;83.07
35519;BME280;21627;48.216;16.482;2023-04-03T06:37:00;100356.03;;;4.74;84.22
35519;BME280;21627;48.216;16.482;2023-04-03T06:39:27;100372.94;;;4.69;84.97
35519;BME280;21627;48.216;16.482;2023-04-03T06:41:54;100372.97;;;4.71;84.26
35519;BME280;21627;48.216;16.482;2023-04-03T06:44:22;100372.09;;;4.70;83.80
35519;BME280;21627;48.216;16.482;2023-04-03T06:46:49;100374.63;;;4.69;83.80
35519;BME280;21627;48.216;16.482;2023-04-03T06:49:16;100371.84;;;4.63;83.17
35519;BME280;21627;48.216;16.482;2023-04-03T06:51:46;100374.41;;;4.63;83.41
35519;BME280;21627;48.216;16.482;2023-04-03T06:54:13;100380.19;;;4.57;83.23
35519;BME280;21627;48.216;16.482;2023-04-03T06:56:41;100387.63;;;4.75;82.63
35519;BME280;21627;48.216;16.482;2023-04-03T06:59:10;100389.25;;;4.71;82.95
35519;BME280;21627;48.216;16.482;2023-04-03T07:01:37;100399.69;;;4.77;82.39
35519;BME280;21627;48.216;16.482;2023-04-03T07:04:04;100396.16;;;4.74;81.85
35519;BME280;21627;48.216;16.482;2023-04-03T07:06:32;100393.13;;;4.86;81.55
35519;BME280;21627;48.216;16.482;2023-04-03T07:09:01;100392.94;;;4.81;80.84
35519;BME280;21627;48.216;16.482;2023-04-03T07:11:28;100394.38;;;4.71;79.96
35519;BME280;21627;48.216;16.482;2023-04-03T07:13:55;100384.88;;;4.69;80.90
35519;BME280;21627;48.216;16.482;2023-04-03T07:16:25;100391.72;;;4.70;79.06
35519;BME280;21627;48.216;16.482;2023-04-03T07:18:52;100404.69;;;4.74;79.60
35519;BME280;21627;48.216;16.482;2023-04-03T07:21:19;100412.69;;;4.84;80.63
35519;BME280;21627;48.216;16.482;2023-04-03T07:23:47;100420.50;;;4.87;80.65
35519;BME280;21627;48.216;16.482;2023-04-03T07:26:15;100419.91;;;4.95;80.10
35519;BME280;21627;48.216;16.482;2023-04-03T07:28:42;100417.50;;;5.00;79.59
35519;BME280;21627;48.216;16.482;2023-04-03T07:31:12;100407.41;;;5.05;79.57
35519;BME280;21627;48.216;16.482;2023-04-03T07:33:44;100401.84;;;5.18;78.29
35519;BME280;21627;48.216;16.482;2023-04-03T07:36:18;100411.34;;;5.20;77.79
35519;BME280;21627;48.216;16.482;2023-04-03T07:38:45;100413.59;;;5.37;76.35
35519;BME280;21627;48.216;16.482;2023-04-03T07:41:16;100411.03;;;5.37;77.89
35519;BME280;21627;48.216;16.482;2023-04-03T07:43:47;100420.81;;;5.50;77.92
35519;BME280;21627;48.216;16.482;2023-04-03T07:46:17;100417.50;;;5.53;75.62
35519;BME280;21627;48.216;16.482;2023-04-03T07:48:44;100421.47;;;5.72;76.52
35519;BME280;21627;48.216;16.482;2023-04-03T07:51:12;100412.94;;;6.00;75.22
35519;BME280;21627;48.216;16.482;2023-04-03T07:53:40;100424.44;;;6.13;73.46
35519;BME280;21627;48.216;16.482;2023-04-03T07:56:08;100423.09;;;6.25;71.83
35519;BME280;21627;48.216;16.482;2023-04-03T07:58:36;100422.69;;;6.42;72.66
35519;BME280;21627;48.216;16.482;2023-04-03T08:01:04;100415.69;;;6.68;71.67
35519;BME280;21627;48.216;16.482;2023-04-03T08:03:31;100408.75;;;6.99;70.35
35519;BME280;21627;48.216;16.482;2023-04-03T08:06:07;100411.69;;;7.14;68.38
35519;BME280;21627;48.216;16.482;2023-04-03T08:08:41;100416.16;;;7.21;69.14
35519;BME280;21627;48.216;16.482;2023-04-03T08:11:10;100414.88;;;7.40;68.02
35519;BME280;21627;48.216;16.482;2023-04-03T08:13:38;100416.03;;;7.51;66.42
35519;BME280;21627;48.216;16.482;2023-04-03T08:16:11;100407.34;;;7.48;66.76
35519;BME280;21627;48.216;16.482;2023-04-03T08:18:39;100426.81;;;7.36;65.92
35519;BME280;21627;48.216;16.482;2023-04-03T08:21:12;100426.81;;;7.02;64.32
35519;BME280;21627;48.216;16.482;2023-04-03T08:23:41;100414.72;;;6.64;65.11
35519;BME280;21627;48.216;16.482;2023-04-03T08:26:15;100422.16;;;6.87;65.39
35519;BME280;21627;48.216;16.482;2023-04-03T08:28:43;100413.28;;;7.44;67.02
35519;BME280;21627;48.216;16.482;2023-04-03T08:31:14;100418.03;;;8.04;70.96
35519;BME280;21627;48.216;16.482;2023-04-03T08:33:41;100401.94;;;8.16;61.94
35519;BME280;21627;48.216;16.482;2023-04-03T08:36:19;100422.56;;;8.16;60.93
35519;BME280;21627;48.216;16.482;2023-04-03T08:38:49;100424.25;;;7.74;59.29
35519;BME280;21627;48.216;16.482;2023-04-03T08:49:48;100422.66;;;8.20;57.55
35519;BME280;21627;48.216;16.482;2023-04-03T08:52:38;100419.06;;;8.14;53.98
35519;BME280;21627;48.216;16.482;2023-04-03T08:55:41;100423.09;;;7.99;57.73
35519;BME280;21627;48.216;16.482;2023-04-03T08:58:22;100419.72;;;8.02;56.99
35519;BME280;21627;48.216;16.482;2023-04-03T09:03:21;100420.22;;;8.27;55.54
35519;BME280;21627;48.216;16.482;2023-04-03T09:06:14;100409.88;;;7.84;54.38
35519;BME280;21627;48.216;16.482;2023-04-03T09:12:25;100418.59;;;7.53;54.23
35519;BME280;21627;48.216;16.482;2023-04-03T09:15:15;100426.66;;;7.30;53.06
35519;BME280;21627;48.216;16.482;2023-04-03T09:18:04;100416.41;;;7.32;54.46
35519;BME280;21627;48.216;16.482;2023-04-03T09:23:51;100423.22;;;7.28;57.27
35519;BME280;21627;48.216;16.482;2023-04-03T09:26:35;100428.00;;;7.14;56.39
35519;BME280;21627;48.216;16.482;2023-04-03T09:29:08;100433.03;;;7.10;56.32
35519;BME280;21627;48.216;16.482;2023-04-03T09:31:38;100434.28;;;7.26;57.74
35519;BME280;21627;48.216;16.482;2023-04-03T09:36:48;100435.66;;;7.13;55.70
35519;BME280;21627;48.216;16.482;2023-04-03T09:39:27;100450.00;;;7.03;56.14
35519;BME280;21627;48.216;16.482;2023-04-03T09:44:32;100446.06;;;6.53;55.95
35519;BME280;21627;48.216;16.482;2023-04-03T09:52:46;100436.56;;;6.18;54.66
35519;BME280;21627;48.216;16.482;2023-04-03T09:57:41;100447.13;;;5.99;54.42
35519;BME280;21627;48.216;16.482;2023-04-03T10:00:22;100451.41;;;5.98;53.68
35519;BME280;21627;48.216;16.482;2023-04-03T10:02:55;100449.63;;;5.96;54.13
35519;BME280;21627;48.216;16.482;2023-04-03T10:10:43;100468.53;;;5.99;56.76
35519;BME280;21627;48.216;16.482;2023-04-03T10:13:17;100475.72;;;6.11;56.79
35519;BME280;21627;48.216;16.482;2023-04-03T10:16:09;100468.09;;;6.13;56.80
35519;BME280;21627;48.216;16.482;2023-04-03T10:19:01;100471.09;;;6.28;56.90
35519;BME280;21627;48.216;16.482;2023-04-03T10:22:00;100478.59;;;6.20;56.71
35519;BME280;21627;48.216;16.482;2023-04-03T10:36:38;100462.50;;;6.89;52.98
35519;BME280;21627;48.216;16.482;2023-04-03T10:45:26;100453.41;;;9.01;45.25
35519;BME280;21627;48.216;16.482;2023-04-03T10:48:16;100448.00;;;8.85;43.37
35519;BME280;21627;48.216;16.482;2023-04-03T10:54:06;100453.19;;;8.02;46.75
35519;BME280;21627;48.216;16.482;2023-04-03T10:56:51;100457.22;;;7.53;46.75
35519;BME280;21627;48.216;16.482;2023-04-03T10:59:55;100448.16;;;7.32;46.88
35519;BME280;21627;48.216;16.482;2023-04-03T11:02:35;100449.94;;;7.35;47.14
35519;BME280;21627;48.216;16.482;2023-04-03T11:05:21;100445.31;;;7.22;47.08
35519;BME280;21627;48.216;16.482;2023-04-03T11:07:54;100458.19;;;7.58;46.61
35519;BME280;21627;48.216;16.482;2023-04-03T11:16:22;100460.84;;;7.99;45.46
35519;BME280;21627;48.216;16.482;2023-04-03T11:19:11;100453.47;;;7.76;46.94
35519;BME280;21627;48.216;16.482;2023-04-03T11:24:32;100461.38;;;7.13;48.21
35519;BME280;21627;48.216;16.482;2023-04-03T11:27:01;100459.38;;;7.01;48.14
35519;BME280;21627;48.216;16.482;2023-04-03T11:29:40;100456.50;;;6.89;46.22
35519;BME280;21627;48.216;16.482;2023-04-03T11:32:52;100443.97;;;7.03;46.98
35519;BME280;21627;48.216;16.482;2023-04-03T11:35:25;100444.34;;;7.18;47.63
35519;BME280;21627;48.216;16.482;2023-04-03T11:37:53;100445.25;;;7.53;46.92
35519;BME280;21627;48.216;16.482;2023-04-03T11:40:31;100424.09;;;8.08;47.68
35519;BME280;21627;48.216;16.482;2023-04-03T11:56:30;100448.34;;;7.40;46.02
35519;BME280;21627;48.216;16.482;2023-04-03T12:01:56;100435.28;;;7.31;47.32
35519;BME280;21627;48.216;16.482;2023-04-03T12:04:27;100443.84;;;7.31;46.95
35519;BME280;21627;48.216;16.482;2023-04-03T12:07:12;100441.41;;;7.36;46.37
35519;BME280;21627;48.216;16.482;2023-04-03T12:12:56;100441.28;;;7.33;46.99
35519;BME280;21627;48.216;16.482;2023-04-03T12:22:04;100446.53;;;7.36;46.08
35519;BME280;21627;48.216;16.482;2023-04-03T12:27:27;100449.06;;;7.34;46.09
35519;BME280;21627;48.216;16.482;2023-04-03T12:30:13;100433.31;;;7.21;46.36
35519;BME280;21627;48.216;16.482;2023-04-03T12:36:15;100437.03;;;6.99;45.56
35519;BME280;21627;48.216;16.482;2023-04-03T12:39:13;100441.56;;;7.09;47.16
35519;BME280;21627;48.216;16.482;2023-04-03T12:42:14;100430.44;;;7.08;44.44
35519;BME280;21627;48.216;16.482;2023-04-03T12:45:20;100436.31;;;7.04;45.63
35519;BME280;21627;48.216;16.482;2023-04-03T12:47:51;100432.22;;;7.12;43.55
35519;BME280;21627;48.216;16.482;2023-04-03T12:50:36;100419.06;;;7.35;44.91
35519;BME280;21627;48.216;16.482;2023-04-03T12:53:21;100432.59;;;7.28;43.56
35519;BME280;21627;48.216;16.482;2023-04-03T12:55:57;100425.31;;;7.10;45.29
35519;BME280;21627;48.216;16.482;2023-04-03T12:58:44;100427.06;;;7.11;45.65
35519;BME280;21627;48.216;16.482;2023-04-03T13:01:18;100430.13;;;6.96;44.81
35519;BME280;21627;48.216;16.482;2023-04-03T13:03:52;100429.31;;;6.99;44.77
35519;BME280;21627;48.216;16.482;2023-04-03T13:06:28;100428.56;;;7.03;44.54
35519;BME280;21627;48.216;16.482;2023-04-03T13:09:00;100434.47;;;6.99;45.01
35519;BME280;21627;48.216;16.482;2023-04-03T13:11:36;100421.22;;;6.83;44.59
35519;BME280;21627;48.216;16.482;2023-04-03T13:14:19;100426.31;;;6.82;45.14
35519;BME280;21627;48.216;16.482;2023-04-03T13:19:31;100425.13;;;7.02;45.54
35519;BME280;21627;48.216;16.482;2023-04-03T13:22:06;100427.63;;;6.99;44.96
35519;BME280;21627;48.216;16.482;2023-04-03T13:24:37;100420.22;;;7.11;45.60
35519;BME280;21627;48.216;16.482;2023-04-03T13:27:11;100412.63;;;6.83;44.13
35519;BME280;21627;48.216;16.482;2023-04-03T13:29:40;100413.38;;;6.79;43.53
35519;BME280;21627;48.216;16.482;2023-04-03T13:32:17;100427.75;;;6.72;44.60
35519;BME280;21627;48.216;16.482;2023-04-03T13:34:45;100422.81;;;6.78;45.97
35519;BME280;21627;48.216;16.482;2023-04-03T13:37:31;100425.19;;;6.70;45.33
35519;BME280;21627;48.216;16.482;2023-04-03T13:40:11;100416.16;;;6.86;44.81
35519;BME280;21627;48.216;16.482;2023-04-03T13:43:18;100418.13;;;6.63;44.00
35519;BME280;21627;48.216;16.482;2023-04-03T13:48:43;100423.06;;;6.56;46.50
35519;BME280;21627;48.216;16.482;2023-04-03T13:54:00;100408.47;;;6.55;46.79
35519;BME280;21627;48.216;16.482;2023-04-03T13:56:35;100408.84;;;6.68;46.92
35519;BME280;21627;48.216;16.482;2023-04-03T14:01:52;100398.75;;;6.76;45.07
35519;BME280;21627;48.216;16.482;2023-04-03T14:04:25;100396.53;;;6.90;44.97
35519;BME280;21627;48.216;16.482;2023-04-03T14:06:53;100383.81;;;7.31;42.87
35519;BME280;21627;48.216;16.482;2023-04-03T14:09:22;100400.06;;;7.28;42.87
35519;BME280;21627;48.216;16.482;2023-04-03T14:11:54;100390.56;;;7.27;43.43
35519;BME280;21627;48.216;16.482;2023-04-03T14:14:33;100391.25;;;7.19;43.42
35519;BME280;21627;48.216;16.482;2023-04-03T14:17:05;100372.16;;;7.10;43.76
35519;BME280;21627;48.216;16.482;2023-04-03T14:19:53;100387.31;;;6.98;43.98
35519;BME280;21627;48.216;16.482;2023-04-03T14:22:23;100378.78;;;6.99;46.33
35519;BME280;21627;48.216;16.482;2023-04-03T14:24:52;100388.44;;;7.09;45.82
35519;BME280;21627;48.216;16.482;2023-04-03T14:27:37;100384.59;;;6.92;44.96
35519;BME280;21627;48.216;16.482;2023-04-03T14:30:28;100383.84;;;6.98;46.43
35519;BME280;21627;48.216;16.482;2023-04-03T14:32:57;100378.31;;;6.81;45.25
35519;BME280;21627;48.216;16.482;2023-04-03T14:35:26;100383.41;;;6.79;45.41
35519;BME280;21627;48.216;16.482;2023-04-03T14:37:54;100385.25;;;6.85;45.11
35519;BME280;21627;48.216;16.482;2023-04-03T14:40:26;100394.69;;;6.84;45.52
35519;BME280;21627;48.216;16.482;2023-04-03T14:42:54;100397.50;;;7.30;44.91
35519;BME280;21627;48.216;16.482;2023-04-03T14:45:23;100394.06;;;8.08;44.86
35519;BME280;21627;48.216;16.482;2023-04-03T14:47:53;100389.00;;;8.13;42.00
35519;BME280;21627;48.216;16.482;2023-04-03T14:50:24;100392.75;;;8.29;40.99
35519;BME280;21627;48.216;16.482;2023-04-03T14:52:56;100375.88;;;7.99;39.88
35519;BME280;21627;48.216;16.482;2023-04-03T14:55:25;100389.41;;;7.51;39.91
35519;BME280;21627;48.216;16.482;2023-04-03T14:57:53;100384.16;;;7.08;40.75
35519;BME280;21627;48.216;16.482;2023-04-03T15:00:22;100385.63;;;7.00;41.97
35519;BME280;21627;48.216;16.482;2023-04-03T15:02:49;100394.81;;;7.25;41.89
35519;BME280;21627;48.216;16.482;2023-04-03T15:05:17;100386.13;;;7.20;42.65
35519;BME280;21627;48.216;16.482;2023-04-03T15:07:53;100370.81;;;7.25;41.84
35519;BME280;21627;48.216;16.482;2023-04-03T15:10:27;100392.97;;;7.20;42.47